Time;durP1;ratioP1;P1;durP2;ratioP2;P2;SDS_P1;SDS_P2;PMS_P1;PMS_P2;Temp;Humidity;BMP_temperature;BMP_pressure;BME280_temperature;BME280_humidity;BME280_pressure;Samples;Min_cycle;Max_cycle;Signal;HPM_P1;HPM_P2
2022/06/03 00:01:08;;;;;;;16.38;13.32;;;;;;;18.42;91.37;99628.31;5011918;28;20022;-65
2022/06/03 00:03:58;;;;;;;15.95;13.57;;;;;;;18.44;91.43;99623.81;5012337;28;20390;-65
2022/06/03 00:06:59;;;;;;;16.45;13.95;;;;;;;18.35;91.89;99630.44;5011016;28;20045;-65
2022/06/03 00:09:52;;;;;;;16.13;13.38;;;;;;;18.31;91.59;99631.53;5012116;28;20030;-64
2022/06/03 00:12:50;;;;;;;15.77;14.20;;;;;;;18.33;91.80;99621.81;5011920;28;20490;-66
2022/06/03 00:15:37;;;;;;;15.23;13.10;;;;;;;18.32;91.82;99624.53;5004663;28;20050;-65
2022/06/03 00:18:29;;;;;;;17.67;13.45;;;;;;;18.30;92.03;99627.22;5011893;28;20056;-66
2022/06/03 00:21:02;;;;;;;16.50;13.68;;;;;;;18.27;91.62;99627.38;5011968;28;20029;-66
2022/06/03 00:23:39;;;;;;;14.85;13.40;;;;;;;18.26;92.50;99628.31;5012200;28;20109;-66
2022/06/03 00:26:16;;;;;;;15.80;14.00;;;;;;;18.25;92.36;99621.38;5012030;28;20101;-65
2022/06/03 00:28:51;;;;;;;15.73;14.07;;;;;;;18.26;91.85;99625.69;5011779;28;20592;-65
2022/06/03 00:31:29;;;;;;;18.15;14.38;;;;;;;18.25;91.98;99626.63;5010752;28;20029;-65
2022/06/03 00:34:03;;;;;;;17.15;15.30;;;;;;;17.93;91.70;99577.63;5012156;28;20109;-65
2022/06/03 00:36:43;;;;;;;21.33;17.05;;;;;;;17.83;92.94;99588.66;5011868;28;20030;-66
2022/06/03 00:39:28;;;;;;;18.77;15.13;;;;;;;18.20;92.58;99626.00;5011660;28;20105;-65
2022/06/03 00:42:18;;;;;;;15.82;14.25;;;;;;;18.24;92.12;99630.16;5012040;28;20042;-64
2022/06/03 00:45:01;;;;;;;16.83;14.27;;;;;;;17.81;92.00;99583.50;5010674;28;20030;-65
2022/06/03 00:47:36;;;;;;;15.80;14.27;;;;;;;18.13;92.04;99638.63;5011724;28;20387;-65
2022/06/03 00:50:17;;;;;;;17.33;15.52;;;;;;;18.13;91.85;99629.91;5011991;28;20030;-64
2022/06/03 00:53:01;;;;;;;17.33;15.45;;;;;;;18.14;92.02;99634.22;5011688;28;20076;-64
2022/06/03 00:55:44;;;;;;;19.30;14.48;;;;;;;18.08;91.98;99641.47;5011490;28;20042;-64
2022/06/03 00:58:31;;;;;;;17.30;15.00;;;;;;;18.11;92.08;99649.19;5015779;28;20104;-64
2022/06/03 01:00:57;;;;;;;16.98;15.23;;;;;;;18.11;92.18;99664.91;5002051;28;20034;-64
2022/06/03 01:03:38;;;;;;;12.07;10.85;;;;;;;18.06;92.08;99660.84;5013665;28;20095;-64
2022/06/03 01:06:19;;;;;;;16.60;13.30;;;;;;;18.08;92.03;99653.75;5015340;28;20049;-64
2022/06/03 01:09:11;;;;;;;16.50;12.73;;;;;;;17.70;92.45;99620.75;5015205;28;20029;-64
2022/06/03 01:12:05;;;;;;;15.23;13.65;;;;;;;17.64;92.97;99604.50;5015083;28;20072;-65
2022/06/03 01:14:51;;;;;;;17.27;13.68;;;;;;;17.93;92.41;99660.66;5015137;28;20100;-65
2022/06/03 01:17:46;;;;;;;17.80;14.88;;;;;;;17.84;92.84;99655.84;5013682;28;20030;-65
2022/06/03 01:20:43;;;;;;;18.15;14.65;;;;;;;17.80;92.92;99649.94;5014811;28;20040;-64
2022/06/03 01:23:14;;;;;;;17.45;14.18;;;;;;;17.83;93.12;99651.53;5015308;28;20030;-65
2022/06/03 01:25:57;;;;;;;16.75;13.95;;;;;;;17.91;93.11;99642.38;5013756;28;20029;-65
2022/06/03 01:28:41;;;;;;;15.43;12.73;;;;;;;18.02;92.22;99639.19;5014508;28;20117;-63
2022/06/03 01:32:01;;;;;;;15.77;11.75;;;;;;;18.08;92.21;99636.22;4995358;28;20129;-63
2022/06/03 01:34:40;;;;;;;13.52;11.57;;;;;;;17.96;91.31;99625.56;4973801;28;20034;-63
2022/06/03 01:37:27;;;;;;;12.40;11.15;;;;;;;18.06;91.25;99626.78;4995440;28;20038;-63
2022/06/03 01:40:26;;;;;;;12.43;9.60;;;;;;;18.06;90.79;99624.16;4995294;28;20547;-63
2022/06/03 01:43:10;;;;;;;11.57;8.75;;;;;;;18.16;89.88;99629.75;5014683;28;20038;-64
2022/06/03 01:45:55;;;;;;;11.43;9.32;;;;;;;18.19;89.84;99619.09;5014730;28;20038;-64
2022/06/03 01:48:48;;;;;;;14.73;10.32;;;;;;;18.19;90.51;99613.84;5014370;28;20485;-64
2022/06/03 01:51:31;;;;;;;12.38;10.93;;;;;;;17.84;91.63;99603.44;5014417;28;20022;-65
2022/06/03 01:54:09;;;;;;;13.65;10.27;;;;;;;17.93;91.22;99597.75;5012977;28;20494;-65
2022/06/03 01:56:55;;;;;;;12.75;9.07;;;;;;;17.97;90.56;99591.44;5014424;28;20025;-65
2022/06/03 01:59:45;;;;;;;13.15;9.07;;;;;;;17.96;90.16;99615.94;5013057;28;20336;-65
2022/06/03 02:02:45;;;;;;;14.90;9.15;;;;;;;18.11;90.18;99609.00;5014092;28;20026;-65
2022/06/03 02:05:39;;;;;;;12.65;10.02;;;;;;;18.13;91.03;99617.66;5014573;28;20434;-65
2022/06/03 02:08:34;;;;;;;9.68;8.18;;;;;;;18.24;90.27;99603.94;5013195;28;20038;-65
2022/06/03 02:11:12;;;;;;;11.18;9.45;;;;;;;18.20;90.96;99610.28;5005851;28;20037;-64
2022/06/03 02:13:59;;;;;;;11.20;9.07;;;;;;;18.15;89.86;99612.31;4995531;28;20041;-65
2022/06/03 02:16:43;;;;;;;12.15;8.35;;;;;;;18.22;89.89;99598.78;5014620;28;20382;-65
2022/06/03 02:19:33;;;;;;;16.42;8.38;;;;;;;18.32;89.45;99606.16;4994605;28;20054;-64
2022/06/03 02:22:02;;;;;;;11.63;8.13;;;;;;;18.33;89.59;99613.09;4994510;28;20791;-65
2022/06/03 02:24:43;;;;;;;10.48;8.48;;;;;;;18.25;89.48;99610.91;5010450;28;20042;-63
2022/06/03 02:27:46;;;;;;;16.30;8.93;;;;;;;18.22;89.74;99606.66;5013820;28;20033;-63
2022/06/03 02:30:30;;;;;;;12.63;8.77;;;;;;;18.24;89.22;99611.81;5013561;28;20490;-64
2022/06/03 02:33:01;;;;;;;12.55;8.80;;;;;;;18.33;89.10;99600.84;5013948;28;20160;-64
2022/06/03 02:35:54;;;;;;;14.02;8.40;;;;;;;18.21;90.12;99601.50;5013505;28;20392;-62
2022/06/03 02:38:37;;;;;;;11.27;8.70;;;;;;;18.01;89.61;99547.53;5013016;28;20430;-64
2022/06/03 02:41:05;;;;;;;10.57;9.18;;;;;;;18.36;89.62;99605.91;5013702;28;20034;-65
2022/06/03 02:43:57;;;;;;;9.20;7.97;;;;;;;18.19;89.49;99566.66;5013429;28;20034;-64
2022/06/03 02:47:05;;;;;;;11.70;8.68;;;;;;;18.15;89.06;99544.19;5013469;28;20029;-65
2022/06/03 02:49:49;;;;;;;12.23;8.77;;;;;;;18.26;89.30;99591.63;5013351;28;20547;-65
2022/06/03 02:52:44;;;;;;;9.20;8.20;;;;;;;18.40;88.68;99594.31;5013380;28;20036;-65
2022/06/03 02:55:12;;;;;;;10.68;8.55;;;;;;;18.50;88.58;99593.78;5011721;28;20038;-65
2022/06/03 02:58:05;;;;;;;15.05;9.82;;;;;;;18.50;88.99;99599.03;5010236;28;20026;-65
2022/06/03 03:00:57;;;;;;;12.40;9.07;;;;;;;18.48;89.09;99601.75;5023228;28;20364;-65
2022/06/03 03:03:41;;;;;;;12.38;9.15;;;;;;;18.48;89.36;99601.75;5010458;28;20496;-66
2022/06/03 03:06:19;;;;;;;13.65;9.70;;;;;;;18.50;89.42;99597.28;5013147;28;20041;-66
2022/06/03 03:09:17;;;;;;;12.57;8.93;;;;;;;18.57;89.43;99597.75;5010948;28;20018;-65
2022/06/03 03:11:58;;;;;;;14.98;10.40;;;;;;;18.43;89.65;99594.16;5011047;28;20030;-65
2022/06/03 03:14:53;;;;;;;11.32;9.30;;;;;;;18.29;88.88;99547.72;5013262;28;20116;-65
2022/06/03 03:17:33;;;;;;;12.30;9.85;;;;;;;18.78;89.10;99588.69;5013027;28;20030;-65
2022/06/03 03:20:40;;;;;;;13.07;9.13;;;;;;;18.95;88.76;99595.66;5011883;28;20180;-66
2022/06/03 03:23:58;;;;;;;15.13;10.00;;;;;;;19.01;87.95;99578.69;4979503;28;20053;-66
2022/06/03 03:26:32;;;;;;;12.60;9.75;;;;;;;19.19;87.49;99594.28;5011642;28;20420;-65
2022/06/03 03:29:13;;;;;;;15.25;9.93;;;;;;;19.28;86.26;99588.47;5012895;28;20037;-65
2022/06/03 03:32:20;;;;;;;11.00;8.38;;;;;;;19.64;85.34;99587.25;5012907;28;20050;-66
2022/06/03 03:35:04;;;;;;;9.77;8.30;;;;;;;19.62;84.93;99591.72;5011047;28;20030;-65
2022/06/03 03:38:00;;;;;;;11.02;8.98;;;;;;;19.72;84.88;99582.34;5011727;28;20026;-65
2022/06/03 03:40:32;;;;;;;12.10;9.05;;;;;;;19.78;84.61;99584.63;5003307;28;20025;-65
2022/06/03 03:43:34;;;;;;;15.18;8.63;;;;;;;19.89;84.95;99586.59;5011057;28;20491;-66
2022/06/03 03:46:27;;;;;;;12.27;9.18;;;;;;;19.86;84.91;99584.16;5007472;28;20056;-65
2022/06/03 03:49:17;;;;;;;10.48;8.85;;;;;;;19.66;84.72;99578.28;5012680;28;20557;-66
2022/06/03 03:52:06;;;;;;;13.20;9.25;;;;;;;19.67;85.08;99573.91;5012332;28;20501;-64
2022/06/03 03:54:40;;;;;;;12.75;9.15;;;;;;;19.63;85.19;99572.41;4979619;28;20122;-65
2022/06/03 03:57:48;;;;;;;11.57;9.30;;;;;;;19.59;85.22;99578.78;5012432;28;20101;-65
2022/06/03 04:00:45;;;;;;;11.98;8.55;;;;;;;19.45;85.05;99532.31;4948555;29;20043;-66
2022/06/03 04:03:41;;;;;;;11.60;8.93;;;;;;;19.69;85.31;99572.00;4918445;28;20046;-66
2022/06/03 04:06:10;;;;;;;10.13;8.00;;;;;;;19.87;84.69;99566.63;4998166;28;20046;-65
2022/06/03 04:08:49;;;;;;;15.48;10.38;;;;;;;19.77;85.13;99572.41;5010183;28;20069;-65
2022/06/03 04:11:43;;;;;;;13.18;9.88;;;;;;;19.46;85.72;99553.25;5010676;28;20053;-65
2022/06/03 04:14:39;;;;;;;11.80;9.57;;;;;;;19.60;85.47;99552.41;5012086;28;20113;-65
2022/06/03 04:17:20;;;;;;;11.57;9.30;;;;;;;19.70;85.83;99550.06;5012095;28;20040;-65
2022/06/03 04:20:12;;;;;;;12.15;9.25;;;;;;;19.90;85.20;99551.50;5011999;28;20129;-65
2022/06/03 04:22:59;;;;;;;13.10;9.88;;;;;;;20.05;84.56;99552.31;5011838;28;20144;-65
2022/06/03 04:26:02;;;;;;;12.18;9.32;;;;;;;20.13;83.93;99563.19;5012121;28;20036;-65
2022/06/03 04:28:46;;;;;;;12.85;7.85;;;;;;;20.30;84.23;99545.50;5010689;28;20042;-65
2022/06/03 04:31:24;;;;;;;12.07;9.00;;;;;;;20.29;83.39;99535.91;5011923;28;20479;-66
2022/06/03 04:34:08;;;;;;;12.85;9.77;;;;;;;20.41;82.91;99531.63;5015876;28;20080;-65
2022/06/03 04:36:33;;;;;;;15.88;9.35;;;;;;;20.31;82.15;99524.34;5015899;28;20058;-65
2022/06/03 04:39:14;;;;;;;12.55;9.18;;;;;;;20.40;82.21;99530.81;5005275;28;20117;-65
2022/06/03 04:42:04;;;;;;;13.07;8.68;;;;;;;20.50;82.28;99526.63;5004680;28;20038;-65
2022/06/03 04:45:20;;;;;;;10.70;7.90;;;;;;;20.40;82.33;99496.59;5015793;28;20038;-66
2022/06/03 04:47:51;;;;;;;13.38;9.35;;;;;;;20.67;83.93;99522.09;5002742;28;20037;-66
2022/06/03 04:50:39;;;;;;;12.27;9.40;;;;;;;20.73;82.66;99526.94;5015626;28;20076;-65
2022/06/03 04:53:32;;;;;;;11.95;8.80;;;;;;;20.86;81.65;99525.19;5011920;28;20041;-66
2022/06/03 04:56:00;;;;;;;13.95;9.10;;;;;;;20.98;81.50;99522.69;5012665;28;20030;-65
2022/06/03 04:59:00;;;;;;;14.60;9.05;;;;;;;21.10;80.47;99524.47;5014079;28;20030;-64
2022/06/03 05:02:16;;;;;;;14.63;9.07;;;;;;;21.26;80.12;99512.88;5012665;28;20069;-66
2022/06/03 05:05:06;;;;;;;14.90;9.25;;;;;;;21.26;79.61;99497.06;5022397;28;20061;-65
2022/06/03 05:08:01;;;;;;;14.05;9.38;;;;;;;21.35;79.28;99488.56;5014131;28;20117;-65
2022/06/03 05:11:16;;;;;;;12.27;8.05;;;;;;;21.38;78.72;99431.19;4987680;28;20112;-66
2022/06/03 05:14:34;;;;;;;16.85;8.85;;;;;;;21.61;77.61;99454.28;5014006;28;20038;-65
2022/06/03 05:17:28;;;;;;;13.48;7.68;;;;;;;21.61;77.70;99422.66;5014852;28;20049;-66
2022/06/03 05:20:26;;;;;;;11.73;7.03;;;;;;;21.76;77.65;99410.97;5014588;28;20034;-65
2022/06/03 05:23:13;;;;;;;15.77;8.35;;;;;;;22.14;76.95;99460.09;5014043;28;20038;-65
2022/06/03 05:26:16;;;;;;;16.15;9.23;;;;;;;22.06;77.14;99447.47;5013733;28;20176;-65
2022/06/03 05:29:06;;;;;;;13.55;9.05;;;;;;;22.02;78.13;99448.66;5014169;28;20041;-66
2022/06/03 05:31:57;;;;;;;12.05;8.10;;;;;;;22.03;76.97;99402.00;5012046;28;20045;-65
2022/06/03 05:34:25;;;;;;;16.92;8.98;;;;;;;22.29;76.64;99447.56;4998429;28;20119;-66
2022/06/03 05:37:16;;;;;;;9.95;8.63;;;;;;;22.13;76.63;99460.22;5009854;28;20030;-66
2022/06/03 05:39:58;;;;;;;13.52;8.50;;;;;;;22.00;77.45;99418.06;5023531;28;20108;-66
2022/06/03 05:42:46;;;;;;;11.93;9.10;;;;;;;22.40;76.54;99462.63;5010390;28;20026;-66
2022/06/03 05:45:52;;;;;;;10.65;7.85;;;;;;;22.61;75.93;99473.38;5006075;28;20037;-66
2022/06/03 05:48:55;;;;;;;13.90;8.30;;;;;;;22.42;76.58;99466.00;5007131;28;20037;-67
2022/06/03 05:51:48;;;;;;;11.40;7.88;;;;;;;22.52;76.15;99437.13;5013276;28;20064;-67
2022/06/03 05:54:39;;;;;;;14.48;8.82;;;;;;;22.71;76.10;99482.28;5011426;28;20030;-67
2022/06/03 05:57:22;;;;;;;12.95;8.25;;;;;;;22.83;76.54;99487.59;5010418;28;20025;-66
2022/06/03 06:00:00;;;;;;;14.90;8.60;;;;;;;22.78;75.19;99482.69;5010391;28;20026;-66
2022/06/03 06:02:45;;;;;;;11.48;8.32;;;;;;;22.91;75.04;99501.91;5011504;28;20368;-66
2022/06/03 06:05:30;;;;;;;13.95;9.60;;;;;;;22.52;74.80;99453.81;5010809;28;20054;-66
2022/06/03 06:08:09;;;;;;;15.50;9.38;;;;;;;22.73;75.38;99495.38;5012235;28;20050;-67
2022/06/03 06:10:47;;;;;;;15.55;9.55;;;;;;;22.82;76.30;99493.84;5013510;28;20107;-67
2022/06/03 06:13:21;;;;;;;14.35;10.85;;;;;;;22.41;77.01;99498.63;5013310;28;20025;-67
2022/06/03 06:16:40;;;;;;;18.10;11.75;;;;;;;22.28;76.75;99482.81;5007742;28;20094;-66
2022/06/03 06:19:08;;;;;;;13.52;9.65;;;;;;;22.48;75.05;99491.94;5006590;28;20513;-66
2022/06/03 06:21:59;;;;;;;19.08;9.40;;;;;;;22.61;75.53;99480.47;5013235;28;20025;-66
2022/06/03 06:24:50;;;;;;;14.10;8.80;;;;;;;22.80;75.52;99487.84;5006446;28;20026;-65
2022/06/03 06:27:51;;;;;;;10.38;8.50;;;;;;;22.78;75.03;99489.75;5012146;28;20498;-65
2022/06/03 06:30:27;;;;;;;13.18;10.00;;;;;;;22.44;75.26;99474.66;5012808;28;20430;-63
2022/06/03 06:33:14;;;;;;;19.33;11.27;;;;;;;22.75;74.29;99473.19;5003709;28;20038;-65
2022/06/03 06:35:39;;;;;;;17.17;9.15;;;;;;;22.95;74.55;99477.94;5009511;28;20026;-66
2022/06/03 06:38:19;;;;;;;12.20;9.68;;;;;;;22.92;73.62;99474.53;5012205;28;20052;-66
2022/06/03 06:40:44;;;;;;;11.68;9.73;;;;;;;;;;5012017;28;20037;-66
2022/06/03 06:43:52;;;;;;;12.07;8.23;;;;;;;22.97;73.04;99428.44;5013054;28;20431;-66
2022/06/03 06:46:30;;;;;;;13.48;8.63;;;;;;;23.35;73.32;99466.94;5007068;28;20114;-66
2022/06/03 06:49:13;;;;;;;10.68;9.10;;;;;;;23.34;72.71;99446.75;5013305;28;20491;-65
2022/06/03 06:52:09;;;;;;;14.48;9.77;;;;;;;23.17;72.78;99475.31;5013044;28;20064;-66
2022/06/03 06:55:05;;;;;;;13.60;10.90;;;;;;;22.94;73.59;99479.69;5011622;28;20033;-66
2022/06/03 06:57:41;;;;;;;12.18;9.52;;;;;;;22.50;74.92;99426.69;5013351;28;20029;-66
2022/06/03 07:00:27;;;;;;;12.27;9.38;;;;;;;22.65;75.49;99468.72;5028006;28;20112;-66
2022/06/03 07:03:17;;;;;;;13.35;11.40;;;;;;;22.23;76.67;99464.69;5011501;28;20488;-66
2022/06/03 07:06:27;;;;;;;13.43;10.65;;;;;;;22.22;76.01;99459.53;5013195;28;20042;-67
2022/06/03 07:08:55;;;;;;;14.05;11.55;;;;;;;22.12;76.56;99451.47;4990937;28;20066;-66
2022/06/03 07:11:43;;;;;;;17.52;10.65;;;;;;;22.17;76.94;99467.78;5009786;28;20454;-66
2022/06/03 07:14:18;;;;;;;11.77;10.57;;;;;;;21.85;78.42;99476.25;4993290;28;20141;-66
2022/06/03 07:19:56;;;;;;;18.15;5.50;;;;;;;20.51;83.64;99559.06;4993752;28;20364;-64
2022/06/03 07:22:30;;;;;;;13.07;4.03;;;;;;;20.16;84.95;99515.66;5000240;28;20415;-64
2022/06/03 07:25:11;;;;;;;12.93;4.20;;;;;;;19.77;81.60;99532.97;5011271;28;20443;-64
2022/06/03 07:27:42;;;;;;;8.80;2.63;;;;;;;19.46;82.96;99552.41;5012458;28;20033;-65
2022/06/03 07:30:26;;;;;;;7.05;2.28;;;;;;;19.12;84.56;99550.00;5009483;28;20041;-64
2022/06/03 07:33:04;;;;;;;4.68;2.30;;;;;;;19.12;85.81;99526.38;5011716;28;20041;-64
2022/06/03 07:35:38;;;;;;;3.42;2.17;;;;;;;19.03;86.10;99519.06;5008309;28;20022;-64
2022/06/03 07:38:17;;;;;;;5.00;2.83;;;;;;;19.04;87.04;99501.53;5004523;28;20052;-64
2022/06/03 07:40:51;;;;;;;6.28;2.88;;;;;;;19.22;86.98;99536.34;5012523;28;20029;-65
2022/06/03 07:43:38;;;;;;;5.38;3.17;;;;;;;19.24;88.39;99529.22;5027678;28;20487;-65
2022/06/03 07:46:11;;;;;;;5.65;4.00;;;;;;;19.13;88.68;99512.31;5012759;28;20728;-64
2022/06/03 07:48:38;;;;;;;7.22;3.78;;;;;;;19.19;89.29;99518.16;5012604;28;20057;-64
2022/06/03 07:51:06;;;;;;;7.30;5.28;;;;;;;19.26;90.47;99501.09;5012079;28;20072;-65
2022/06/03 07:53:43;;;;;;;10.25;5.55;;;;;;;19.20;91.21;99476.06;5012869;28;20418;-64
2022/06/03 07:56:09;;;;;;;7.40;4.72;;;;;;;19.40;91.69;99481.88;5012786;28;20041;-63
2022/06/03 07:58:37;;;;;;;9.85;5.47;;;;;;;19.52;91.40;99475.00;5012965;28;20080;-63
2022/06/03 08:01:20;;;;;;;10.23;5.28;;;;;;;19.63;92.26;99483.06;5011503;28;20025;-64
2022/06/03 08:03:47;;;;;;;7.97;6.07;;;;;;;19.60;92.25;99459.63;5012528;28;20042;-65
2022/06/03 08:06:13;;;;;;;8.23;5.47;;;;;;;19.88;91.60;99481.56;5011661;28;20088;-64
2022/06/03 08:11:30;;;;;;;7.47;5.40;;;;;;;20.11;91.59;99504.59;4997870;28;20034;-64
2022/06/03 08:13:58;;;;;;;9.52;6.55;;;;;;;19.92;92.31;99462.03;5012757;28;20076;-64
2022/06/03 08:16:24;;;;;;;5.88;5.28;;;;;;;20.22;90.50;99509.16;5012281;28;20054;-64
2022/06/03 08:18:50;;;;;;;7.97;5.45;;;;;;;20.24;90.39;99506.44;5009533;28;20105;-64
2022/06/03 08:21:25;;;;;;;6.93;5.05;;;;;;;19.98;88.93;99466.88;5011332;28;20639;-64
2022/06/03 08:23:54;;;;;;;6.80;5.03;;;;;;;20.10;88.86;99481.03;5012624;28;20061;-66
2022/06/03 08:26:24;;;;;;;8.60;6.18;;;;;;;20.32;88.18;99501.50;5012477;28;20022;-65
2022/06/03 08:28:55;;;;;;;8.30;5.85;;;;;;;20.34;89.18;99513.63;5012411;28;20475;-65
2022/06/03 08:31:24;;;;;;;6.85;5.82;;;;;;;20.30;87.68;99495.53;5012637;28;20112;-64
2022/06/03 08:33:58;;;;;;;13.85;6.50;;;;;;;20.11;89.04;99459.03;5011009;28;20159;-64
2022/06/03 08:36:39;;;;;;;8.55;6.18;;;;;;;20.25;88.13;99492.34;5012406;28;20022;-64
2022/06/03 08:39:13;;;;;;;7.53;6.57;;;;;;;20.20;87.96;99476.03;5012210;28;20507;-65
2022/06/03 08:42:06;;;;;;;8.35;6.70;;;;;;;20.53;89.35;99523.78;5012295;28;20112;-65
2022/06/03 08:44:41;;;;;;;7.65;6.60;;;;;;;20.51;89.37;99523.06;5012184;28;20030;-64
2022/06/03 08:47:26;;;;;;;6.88;6.20;;;;;;;20.54;88.97;99532.53;5012121;28;20084;-65
2022/06/03 08:49:58;;;;;;;15.55;7.47;;;;;;;20.47;88.34;99529.47;5012312;28;20483;-64
2022/06/03 08:52:38;;;;;;;9.40;7.15;;;;;;;20.45;87.20;99534.00;5012245;28;20451;-65
2022/06/03 08:55:22;;;;;;;9.45;8.02;;;;;;;20.13;86.61;99489.56;4996319;28;20056;-64
2022/06/03 08:57:55;;;;;;;9.63;7.95;;;;;;;20.17;87.45;99495.47;5008285;28;20510;-64
2022/06/03 09:00:26;;;;;;;10.70;8.00;;;;;;;20.14;87.35;99496.50;5012427;28;20394;-65
2022/06/03 09:03:15;;;;;;;11.57;8.93;;;;;;;20.16;87.62;99484.09;5012245;28;20387;-65
2022/06/03 09:05:56;;;;;;;12.88;9.07;;;;;;;20.31;88.75;99495.41;5012138;28;20490;-65
2022/06/03 09:08:37;;;;;;;11.13;9.05;;;;;;;20.37;85.31;99498.59;5012067;28;20470;-65
2022/06/03 09:11:20;;;;;;;13.30;9.73;;;;;;;20.61;86.04;99533.00;5012114;28;20034;-64
2022/06/03 09:14:03;;;;;;;14.18;11.38;;;;;;;20.59;84.58;99559.38;5012110;28;20030;-64
2022/06/03 09:16:31;;;;;;;13.48;10.25;;;;;;;20.44;84.70;99550.72;5010708;28;20053;-64
2022/06/03 09:19:17;;;;;;;10.23;9.15;;;;;;;20.13;85.11;99502.69;5014190;28;20432;-63
2022/06/03 09:21:50;;;;;;;10.85;8.35;;;;;;;20.33;84.36;99546.13;5015610;28;20022;-65
2022/06/03 09:24:24;;;;;;;11.65;9.13;;;;;;;20.29;84.77;99554.31;5015678;28;20475;-63
2022/06/03 09:26:56;;;;;;;9.32;7.60;;;;;;;20.29;85.16;99556.94;5015517;28;20049;-64
2022/06/03 09:29:23;;;;;;;8.98;8.05;;;;;;;20.32;84.80;99548.84;5015202;28;20048;-64
2022/06/03 09:31:54;;;;;;;9.38;7.50;;;;;;;20.36;84.20;99552.97;5015439;28;20030;-64
2022/06/03 09:34:22;;;;;;;9.20;7.20;;;;;;;20.10;83.55;99508.16;5015206;28;20034;-64
2022/06/03 09:36:49;;;;;;;7.55;6.85;;;;;;;20.20;83.74;99529.47;5013943;28;20030;-64
2022/06/03 09:39:18;;;;;;;9.27;6.68;;;;;;;20.23;82.92;99554.72;5014938;28;20030;-64
2022/06/03 09:41:49;;;;;;;7.88;7.07;;;;;;;20.23;83.74;99557.34;5010290;28;20022;-64
2022/06/03 09:44:20;;;;;;;8.43;6.68;;;;;;;19.91;83.31;99510.25;4998276;28;20072;-64
2022/06/03 09:47:00;;;;;;;7.53;6.60;;;;;;;19.88;84.00;99531.50;5014782;28;20830;-64
2022/06/03 09:49:29;;;;;;;8.65;7.63;;;;;;;19.78;84.13;99525.94;5015013;28;20038;-63
2022/06/03 09:52:00;;;;;;;8.35;6.88;;;;;;;19.98;84.97;99572.88;5014871;28;20029;-65
2022/06/03 09:54:35;;;;;;;10.10;7.70;;;;;;;19.50;84.99;99525.03;5013383;28;20498;-65
2022/06/03 09:57:29;;;;;;;7.05;6.30;;;;;;;19.77;81.88;99568.94;5014828;28;20030;-64
2022/06/03 10:00:03;;;;;;;7.50;6.38;;;;;;;19.57;82.56;99554.41;5014392;28;20038;-64
2022/06/03 10:02:31;;;;;;;9.88;7.18;;;;;;;19.37;81.92;99530.19;5014493;28;20022;-65
2022/06/03 10:05:01;;;;;;;8.00;6.82;;;;;;;19.38;81.40;99521.38;5014920;28;20049;-64
2022/06/03 10:07:28;;;;;;;7.13;5.80;;;;;;;19.70;81.88;99571.09;5015103;28;20860;-64
2022/06/03 10:12:49;;;;;;;7.03;6.35;;;;;;;19.56;82.08;99566.66;5013923;28;20028;-65
2022/06/03 10:15:38;;;;;;;7.13;6.43;;;;;;;19.54;81.96;99550.16;5014378;28;20026;-66
2022/06/03 10:18:56;;;;;;;6.90;5.95;;;;;;;19.55;81.81;99572.84;5013559;28;20034;-64
2022/06/03 10:21:21;;;;;;;9.48;7.38;;;;;;;19.52;82.70;99565.16;4990684;28;20103;-66
2022/06/03 10:23:53;;;;;;;7.85;7.15;;;;;;;19.19;81.32;99521.63;5013601;28;20026;-64
2022/06/03 10:26:20;;;;;;;;;;;;;;;19.56;81.63;99557.94;5015030;28;20175;-65
2022/06/03 10:28:49;;;;;;;7.43;6.78;;;;;;;19.39;80.59;99522.19;5013451;28;19924;-64
2022/06/03 10:31:19;;;;;;;7.20;6.57;;;;;;;19.64;80.49;99571.47;5014048;28;20071;-65
2022/06/03 10:33:53;;;;;;;7.25;6.55;;;;;;;19.43;80.18;99507.94;5014129;28;20113;-66
2022/06/03 10:36:24;;;;;;;9.07;6.50;;;;;;;19.78;79.30;99554.84;5014240;28;20038;-66
2022/06/03 10:38:51;;;;;;;7.15;6.50;;;;;;;19.88;79.97;99563.03;5013828;28;20388;-66
2022/06/03 10:41:17;;;;;;;7.32;6.50;;;;;;;19.89;80.15;99568.19;5013542;28;20033;-66
2022/06/03 10:43:43;;;;;;;8.05;6.88;;;;;;;19.97;79.84;99568.56;5013685;28;20044;-67
2022/06/03 10:46:12;;;;;;;7.65;6.78;;;;;;;20.00;80.08;99578.06;5006784;28;20491;-65
2022/06/03 10:48:38;;;;;;;7.15;6.38;;;;;;;20.14;79.12;99580.66;5008271;28;20375;-66
2022/06/03 11:02:32;;;;;;;10.02;6.57;;;;;;;20.06;78.30;99617.09;5012689;28;20101;-65
2022/06/03 11:05:12;;;;;;;7.43;6.47;;;;;;;20.04;78.01;99618.13;5010441;28;20065;-64
2022/06/03 11:07:38;;;;;;;7.47;6.55;;;;;;;20.06;79.08;99627.63;5010878;28;20045;-66
2022/06/03 11:10:09;;;;;;;6.57;5.88;;;;;;;19.82;79.32;99583.53;5013510;28;20060;-65
2022/06/03 11:12:34;;;;;;;6.00;5.38;;;;;;;20.22;77.22;99637.19;5013200;28;20372;-65
2022/06/03 11:15:00;;;;;;;7.82;5.40;;;;;;;20.22;76.53;99634.56;5013389;28;20033;-64
2022/06/03 11:17:32;;;;;;;7.38;5.80;;;;;;;20.25;77.32;99639.63;5007996;28;20029;-66
2022/06/03 11:19:59;;;;;;;6.35;5.75;;;;;;;20.34;76.75;99632.00;5012362;28;20038;-66
2022/06/03 11:22:31;;;;;;;5.70;5.20;;;;;;;20.49;74.94;99635.47;5012334;28;20038;-67
2022/06/03 11:25:10;;;;;;;10.10;5.63;;;;;;;20.49;74.61;99643.34;5012737;28;20168;-66
2022/06/03 11:27:42;;;;;;;8.68;5.97;;;;;;;20.67;75.14;99637.88;5011754;28;20490;-65
2022/06/03 11:30:16;;;;;;;7.85;5.88;;;;;;;20.71;76.08;99649.91;5006517;28;20115;-65
2022/06/03 11:32:45;;;;;;;9.23;6.03;;;;;;;20.50;76.73;99595.03;5009817;28;20033;-66
2022/06/03 11:35:24;;;;;;;5.43;4.93;;;;;;;20.74;75.40;99633.91;5012456;28;20065;-65
2022/06/03 11:37:54;;;;;;;8.35;5.65;;;;;;;20.63;75.14;99623.19;5012757;28;20036;-66
2022/06/03 11:40:30;;;;;;;7.07;6.32;;;;;;;20.84;75.72;99666.59;5009737;28;20037;-66
2022/06/03 11:43:04;;;;;;;11.27;6.40;;;;;;;20.53;73.35;99667.66;5009883;28;20068;-67
2022/06/03 11:45:55;;;;;;;8.18;6.70;;;;;;;20.49;73.89;99677.56;5007851;28;20045;-65
2022/06/03 11:48:41;;;;;;;8.53;5.93;;;;;;;20.15;73.15;99637.56;5012334;28;20407;-65
2022/06/03 11:51:08;;;;;;;8.93;5.82;;;;;;;20.33;73.07;99677.66;5011659;28;20065;-66
2022/06/03 11:53:42;;;;;;;9.18;6.60;;;;;;;20.11;72.00;99682.53;5012218;28;20494;-66
2022/06/03 11:56:10;;;;;;;10.13;6.15;;;;;;;19.95;72.57;99694.00;5012158;28;20050;-65
2022/06/03 11:58:44;;;;;;;7.75;6.68;;;;;;;19.96;72.17;99685.16;5010262;28;20409;-66
2022/06/03 12:01:34;;;;;;;9.10;6.28;;;;;;;20.03;72.86;99685.66;5009169;28;20029;-66
2022/06/03 12:04:23;;;;;;;11.02;6.35;;;;;;;19.85;71.01;99687.59;5008801;28;20497;-66
2022/06/03 12:07:10;;;;;;;8.43;7.43;;;;;;;19.87;72.85;99693.63;5000794;28;20121;-65
2022/06/03 12:10:13;;;;;;;7.85;6.88;;;;;;;19.86;70.61;99691.94;5008698;28;20035;-65
2022/06/03 12:15:32;;;;;;;8.38;7.55;;;;;;;19.97;73.94;99707.06;5008192;28;20053;-67
2022/06/03 12:18:14;;;;;;;10.40;8.82;;;;;;;19.56;72.21;99663.88;5006625;28;20031;-66
2022/06/03 12:20:48;;;;;;;10.52;9.43;;;;;;;19.79;72.49;99722.97;4997912;28;20030;-65
2022/06/03 12:23:14;;;;;;;12.15;7.85;;;;;;;19.86;72.95;99741.88;5012357;28;20041;-66
2022/06/03 12:25:48;;;;;;;9.90;6.25;;;;;;;19.58;71.47;99732.97;5012704;28;20030;-66
2022/06/03 12:28:38;;;;;;;6.45;5.82;;;;;;;19.51;69.54;99738.63;5012623;28;20030;-66
2022/06/03 12:31:06;;;;;;;6.05;5.00;;;;;;;19.25;69.65;99678.81;5003128;28;20038;-66
2022/06/03 12:33:58;;;;;;;6.82;5.05;;;;;;;19.51;72.11;99736.00;5004936;28;20112;-65
2022/06/03 12:36:51;;;;;;;8.13;5.10;;;;;;;18.71;70.65;99692.31;5005731;28;20120;-64
2022/06/03 12:39:31;;;;;;;9.00;5.60;;;;;;;19.18;71.74;99752.75;5012399;28;20042;-65
2022/06/03 12:42:08;;;;;;;7.18;4.63;;;;;;;18.90;70.76;99707.06;5012285;28;20030;-65
2022/06/03 12:44:46;;;;;;;6.47;4.03;;;;;;;19.06;71.74;99776.13;5012321;28;20056;-65
2022/06/03 12:47:18;;;;;;;4.30;3.90;;;;;;;18.96;71.09;99759.22;5012215;28;20101;-65
2022/06/03 12:49:43;;;;;;;9.13;3.80;;;;;;;18.78;70.63;99782.88;5012532;28;20105;-65
2022/06/03 12:52:21;;;;;;;6.40;4.03;;;;;;;18.76;71.07;99789.13;5013139;28;20121;-65
2022/06/03 12:54:49;;;;;;;6.43;3.55;;;;;;;18.64;70.96;99793.28;5002540;28;20391;-65
2022/06/03 12:57:41;;;;;;;4.57;3.47;;;;;;;18.56;71.66;99793.66;5006115;28;20022;-65